createdAt,value
2022-07-25T00:04:46.758Z,81.10
2022-07-25T00:09:50.607Z,81.20
2022-07-25T00:14:54.415Z,81.30
2022-07-25T00:19:59.506Z,81.30
2022-07-25T00:25:03.256Z,81.50
2022-07-25T00:30:08.133Z,81.50
2022-07-25T00:35:13.175Z,81.80
2022-07-25T00:40:17.234Z,81.70
2022-07-25T00:45:20.984Z,81.70
2022-07-25T00:50:26.206Z,81.70
2022-07-25T00:55:31.324Z,81.60
2022-07-25T01:00:35.054Z,81.60
2022-07-25T01:05:40.105Z,81.60
2022-07-25T01:10:44.019Z,81.70
2022-07-25T01:15:47.830Z,81.50
2022-07-25T01:20:53.303Z,81.60
2022-07-25T01:25:57.035Z,81.70
2022-07-25T01:31:01.197Z,81.80
2022-07-25T01:36:07.190Z,81.90
2022-07-25T01:41:10.911Z,82.00
2022-07-25T01:46:14.813Z,82.00
2022-07-25T01:51:20.983Z,82.00
2022-07-25T01:56:25.399Z,82.10
2022-07-25T02:01:29.482Z,81.90
2022-07-25T02:06:35.419Z,81.70
2022-07-25T02:11:39.098Z,81.30
2022-07-25T02:16:42.862Z,82.00
2022-07-25T02:21:48.029Z,81.00
2022-07-25T02:26:51.802Z,80.90
2022-07-25T02:31:55.530Z,80.40
2022-07-25T02:37:00.643Z,80.50
2022-07-25T02:42:04.514Z,80.50
2022-07-25T02:47:08.425Z,80.70
2022-07-25T02:52:13.470Z,81.00
2022-07-25T02:57:17.215Z,80.60
2022-07-25T03:02:20.898Z,80.70
2022-07-25T03:07:25.921Z,80.70
2022-07-25T03:12:29.597Z,80.60
2022-07-25T03:17:33.828Z,80.40
2022-07-25T03:22:38.881Z,80.40
2022-07-25T03:27:42.522Z,80.40
2022-07-25T03:32:46.215Z,80.40
2022-07-25T03:37:51.204Z,80.60
2022-07-25T03:42:54.964Z,80.60
2022-07-25T03:47:58.634Z,80.80
2022-07-25T03:53:03.761Z,80.80
2022-07-25T03:58:08.068Z,80.80
2022-07-25T04:03:11.742Z,80.70
2022-07-25T04:08:16.773Z,80.80
2022-07-25T04:13:20.424Z,80.70
2022-07-25T04:18:28.628Z,80.60
2022-07-25T04:23:34.298Z,80.40
2022-07-25T04:28:38.059Z,80.60
2022-07-25T04:33:42.311Z,80.40
2022-07-25T04:38:47.429Z,80.40
2022-07-25T04:43:51.153Z,80.30
2022-07-25T04:48:55.666Z,80.30
2022-07-25T04:54:00.742Z,80.10
2022-07-25T04:59:06.522Z,80.30
2022-07-25T05:04:10.738Z,79.90
2022-07-25T05:09:15.855Z,80.10
2022-07-25T05:14:19.525Z,81.10
2022-07-25T05:19:24.609Z,80.30
2022-07-25T05:24:29.643Z,80.80
2022-07-25T05:29:33.868Z,80.90
2022-07-25T05:34:37.599Z,80.90
2022-07-25T05:39:42.674Z,81.00
2022-07-25T05:44:46.406Z,81.10
2022-07-25T05:49:50.132Z,81.30
2022-07-25T05:54:55.428Z,81.70
2022-07-25T05:59:59.096Z,82.20
2022-07-25T06:05:02.778Z,82.40
2022-07-25T06:10:08.382Z,82.50
2022-07-25T06:15:22.154Z,82.40
2022-07-25T06:20:30.459Z,82.40
2022-07-25T06:25:35.669Z,82.40
2022-07-25T06:30:39.317Z,83.00
2022-07-25T06:35:43.189Z,83.30
2022-07-25T06:40:48.304Z,83.60
2022-07-25T06:45:52.402Z,83.90
2022-07-25T06:50:56.304Z,84.00
2022-07-25T06:56:01.401Z,84.20
2022-07-25T07:01:05.923Z,84.00
2022-07-25T07:06:10.702Z,85.10
2022-07-25T07:11:16.817Z,85.00
2022-07-25T07:16:20.755Z,85.70
2022-07-25T07:21:24.498Z,85.70
2022-07-25T07:26:30.004Z,86.30
2022-07-25T07:31:34.920Z,86.50
2022-07-25T07:36:38.768Z,87.40
2022-07-25T07:41:43.896Z,87.30
2022-07-25T07:46:47.687Z,87.70
2022-07-25T07:51:51.446Z,88.00
2022-07-25T07:56:56.757Z,88.20
2022-07-25T08:02:00.662Z,88.10
2022-07-25T08:07:04.715Z,88.50
2022-07-25T08:12:10.119Z,88.40
2022-07-25T08:17:14.875Z,88.10
2022-07-25T08:22:19.166Z,88.10
2022-07-25T08:27:24.380Z,88.30
2022-07-25T08:32:28.711Z,88.20
2022-07-25T08:37:32.381Z,88.10
2022-07-25T08:42:38.461Z,87.60
2022-07-25T08:47:42.405Z,87.10
2022-07-25T08:52:47.686Z,87.00
2022-07-25T08:57:54.489Z,87.60
2022-07-25T09:03:03.007Z,86.90
2022-07-25T09:08:11.168Z,87.00
2022-07-25T09:13:17.672Z,86.70
2022-07-25T09:18:23.755Z,86.80
2022-07-25T09:23:32.596Z,87.10
2022-07-25T09:28:43.113Z,87.00
2022-07-25T09:33:48.411Z,86.20
2022-07-25T09:38:55.897Z,85.70
2022-07-25T09:44:01.055Z,85.70
2022-07-25T09:49:04.929Z,85.00
2022-07-25T09:54:10.277Z,84.70
2022-07-25T09:59:15.805Z,83.90
2022-07-25T10:04:22.987Z,82.70
2022-07-25T10:09:26.749Z,82.60
2022-07-25T10:14:31.989Z,82.10
2022-07-25T10:19:49.254Z,81.20
2022-07-25T10:24:54.905Z,80.20
2022-07-25T10:30:02.350Z,80.50
2022-07-25T10:35:17.266Z,79.80
2022-07-25T10:40:28.466Z,79.40
2022-07-25T10:45:52.460Z,78.60
2022-07-25T10:51:00.612Z,79.20
2022-07-25T10:56:07.084Z,78.50
2022-07-25T11:01:14.206Z,78.20
2022-07-25T11:06:18.991Z,78.80
2022-07-25T11:11:22.785Z,78.90
2022-07-25T11:16:29.436Z,79.50
2022-07-25T11:21:33.408Z,79.00
2022-07-25T11:26:46.986Z,79.50
2022-07-25T11:31:56.477Z,79.20
2022-07-25T11:37:02.304Z,79.20
2022-07-25T11:42:09.876Z,79.10
2022-07-25T11:47:27.467Z,78.70
2022-07-25T11:52:34.448Z,77.40
2022-07-25T11:57:39.797Z,78.20
2022-07-25T12:02:45.640Z,77.60
2022-07-25T12:07:50.775Z,77.30
2022-07-25T12:12:56.223Z,77.30
2022-07-25T12:18:02.367Z,76.70
2022-07-25T12:23:09.476Z,77.30
2022-07-25T12:28:13.922Z,77.30
2022-07-25T12:33:19.083Z,77.70
2022-07-25T12:38:22.971Z,77.90
2022-07-25T12:43:27.566Z,78.00
2022-07-25T12:48:34.890Z,77.30
2022-07-25T12:53:42.255Z,76.90
2022-07-25T12:58:46.559Z,77.20
2022-07-25T13:03:51.857Z,75.80
2022-07-25T13:08:55.918Z,76.00
2022-07-25T13:13:59.944Z,76.10
2022-07-25T13:19:05.802Z,76.20
2022-07-25T13:24:10.671Z,74.90
2022-07-25T13:29:17.020Z,74.80
2022-07-25T13:34:25.633Z,74.70
2022-07-25T13:39:29.544Z,75.00
2022-07-25T13:44:33.264Z,74.90
2022-07-25T13:49:40.801Z,74.10
2022-07-25T13:54:44.641Z,72.80
2022-07-25T13:59:48.756Z,73.90
2022-07-25T14:04:54.220Z,72.70
2022-07-25T14:09:59.074Z,72.20
2022-07-25T14:15:06.709Z,71.90
2022-07-25T14:20:13.055Z,72.90
2022-07-25T14:25:16.790Z,71.40
2022-07-25T14:30:20.684Z,71.30
2022-07-25T14:35:31.900Z,70.60
2022-07-25T14:40:37.259Z,70.80
2022-07-25T14:45:42.527Z,70.30
2022-07-25T14:50:47.959Z,69.40
2022-07-25T14:55:51.785Z,69.50
2022-07-25T15:00:55.591Z,68.60
2022-07-25T15:06:02.029Z,68.10
2022-07-25T15:11:05.762Z,65.80
2022-07-25T15:16:09.989Z,65.30
2022-07-25T15:21:15.254Z,65.40
2022-07-25T15:26:19.161Z,65.30
2022-07-25T15:31:24.712Z,65.40
2022-07-25T15:36:37.694Z,65.60
2022-07-25T15:41:41.590Z,64.60
2022-07-25T15:46:46.666Z,63.90
2022-07-25T15:51:52.075Z,63.50
2022-07-25T15:56:55.921Z,61.30
2022-07-25T16:02:00.617Z,63.40
2022-07-25T16:07:05.826Z,63.00
2022-07-25T16:12:12.104Z,62.50
2022-07-25T16:17:16.240Z,62.50
2022-07-25T16:22:21.959Z,62.80
2022-07-25T16:27:25.793Z,62.90
2022-07-25T16:32:30.281Z,62.30
2022-07-25T16:37:35.493Z,62.30
2022-07-25T16:42:39.708Z,62.30
2022-07-25T16:47:45.326Z,61.20
2022-07-25T16:52:50.909Z,62.30
2022-07-25T16:57:55.066Z,60.70
2022-07-25T17:02:59.252Z,59.50
2022-07-25T17:08:04.584Z,59.90
2022-07-25T17:13:08.365Z,60.30
2022-07-25T17:18:12.019Z,60.00
2022-07-25T17:23:17.106Z,60.00
2022-07-25T17:28:21.636Z,61.10
2022-07-25T17:33:25.545Z,62.40
2022-07-25T17:38:34.853Z,62.20
2022-07-25T17:43:39.150Z,62.70
2022-07-25T17:48:43.488Z,63.30
2022-07-25T17:53:48.611Z,64.20
2022-07-25T17:58:52.566Z,65.00
2022-07-25T18:03:57.394Z,65.50
2022-07-25T18:09:02.738Z,65.20
2022-07-25T18:14:06.753Z,65.40
2022-07-25T18:19:11.094Z,65.40
2022-07-25T18:24:16.520Z,65.60
2022-07-25T18:29:20.572Z,65.60
2022-07-25T18:34:24.526Z,66.10
2022-07-25T18:39:31.621Z,65.60
2022-07-25T18:44:35.517Z,65.60
2022-07-25T18:49:39.391Z,65.70
2022-07-25T18:54:44.604Z,66.00
2022-07-25T18:59:48.855Z,66.10
2022-07-25T19:04:52.709Z,66.40
2022-07-25T19:09:57.807Z,66.20
2022-07-25T19:15:04.239Z,66.70
2022-07-25T19:20:09.714Z,67.70
2022-07-25T19:25:14.899Z,68.30
2022-07-25T19:30:19.949Z,68.90
2022-07-25T19:35:26.198Z,69.30
2022-07-25T19:40:32.086Z,69.70
2022-07-25T19:45:36.422Z,70.80
2022-07-25T19:50:41.020Z,71.10
2022-07-25T19:55:46.655Z,71.40
2022-07-25T20:00:50.481Z,72.10
2022-07-25T20:05:54.326Z,72.10
2022-07-25T20:10:59.514Z,72.50
2022-07-25T20:16:04.013Z,72.60
2022-07-25T20:21:08.433Z,73.10
2022-07-25T20:26:13.924Z,74.10
2022-07-25T20:31:18.370Z,73.40
2022-07-25T20:36:22.829Z,73.70
2022-07-25T20:41:28.153Z,73.80
2022-07-25T20:46:36.068Z,74.00
2022-07-25T20:51:40.912Z,74.10
2022-07-25T20:56:46.453Z,74.00
2022-07-25T21:01:50.285Z,74.40
2022-07-25T21:06:56.601Z,74.40
2022-07-25T21:12:02.664Z,74.40
2022-07-25T21:17:06.544Z,74.90
2022-07-25T21:22:10.489Z,75.00
2022-07-25T21:27:15.666Z,75.10
2022-07-25T21:32:21.415Z,76.20
2022-07-25T21:37:27.516Z,75.70
2022-07-25T21:42:42.320Z,75.90
2022-07-25T21:47:49.044Z,76.30
2022-07-25T21:52:53.296Z,76.70
2022-07-25T21:57:58.676Z,76.80
2022-07-25T22:03:02.516Z,77.20
2022-07-25T22:08:09.591Z,77.40
2022-07-25T22:13:14.753Z,77.70
2022-07-25T22:18:18.577Z,78.10
2022-07-25T22:23:22.469Z,78.30
2022-07-25T22:28:27.845Z,78.60
2022-07-25T22:33:34.448Z,79.00
2022-07-25T22:38:38.209Z,79.40
2022-07-25T22:43:57.511Z,79.60
2022-07-25T22:49:03.063Z,79.90
2022-07-25T22:54:09.166Z,80.10
2022-07-25T22:59:16.165Z,80.60
2022-07-25T23:04:20.062Z,80.70
2022-07-25T23:09:24.447Z,81.20
2022-07-25T23:14:39.082Z,81.20
2022-07-25T23:19:42.872Z,82.10
2022-07-25T23:24:46.884Z,82.10
2022-07-25T23:29:52.364Z,82.20
2022-07-25T23:34:56.247Z,82.60
2022-07-25T23:40:00.260Z,83.10
2022-07-25T23:45:06.632Z,83.10
2022-07-25T23:50:11.580Z,83.40
2022-07-25T23:55:15.394Z,83.40
